sensor_id;sensor_type;location;lat;lon;timestamp;P1;durP1;ratioP1;P2;durP2;ratioP2
18176;SDS011;9213;50.858;3.964;2022-12-08T00:01:13;37.23;;;21.87;;
18176;SDS011;9213;50.858;3.964;2022-12-08T00:03:41;38.27;;;21.33;;
18176;SDS011;9213;50.858;3.964;2022-12-08T00:06:12;34.97;;;21.60;;
18176;SDS011;9213;50.858;3.964;2022-12-08T00:09:03;37.23;;;21.17;;
18176;SDS011;9213;50.858;3.964;2022-12-08T00:11:53;40.30;;;20.47;;
18176;SDS011;9213;50.858;3.964;2022-12-08T00:14:23;38.57;;;23.07;;
18176;SDS011;9213;50.858;3.964;2022-12-08T00:16:52;43.17;;;24.13;;
18176;SDS011;9213;50.858;3.964;2022-12-08T00:19:19;39.60;;;22.73;;
18176;SDS011;9213;50.858;3.964;2022-12-08T00:21:47;42.40;;;24.03;;
18176;SDS011;9213;50.858;3.964;2022-12-08T00:24:14;38.07;;;23.83;;
18176;SDS011;9213;50.858;3.964;2022-12-08T00:26:41;41.87;;;24.13;;
18176;SDS011;9213;50.858;3.964;2022-12-08T00:29:08;46.50;;;26.27;;
18176;SDS011;9213;50.858;3.964;2022-12-08T00:31:36;41.10;;;23.73;;
18176;SDS011;9213;50.858;3.964;2022-12-08T00:34:04;46.57;;;26.27;;
18176;SDS011;9213;50.858;3.964;2022-12-08T00:36:31;45.87;;;25.93;;
18176;SDS011;9213;50.858;3.964;2022-12-08T00:38:58;44.37;;;26.17;;
18176;SDS011;9213;50.858;3.964;2022-12-08T00:41:26;45.70;;;25.37;;
18176;SDS011;9213;50.858;3.964;2022-12-08T00:44:11;47.93;;;25.87;;
18176;SDS011;9213;50.858;3.964;2022-12-08T00:46:41;47.43;;;26.27;;
18176;SDS011;9213;50.858;3.964;2022-12-08T00:49:08;48.90;;;26.00;;
18176;SDS011;9213;50.858;3.964;2022-12-08T00:51:35;45.37;;;24.93;;
18176;SDS011;9213;50.858;3.964;2022-12-08T00:54:02;46.87;;;25.27;;
18176;SDS011;9213;50.858;3.964;2022-12-08T00:56:29;51.43;;;25.47;;
18176;SDS011;9213;50.858;3.964;2022-12-08T00:58:56;46.13;;;26.17;;
18176;SDS011;9213;50.858;3.964;2022-12-08T01:01:23;54.60;;;27.40;;
18176;SDS011;9213;50.858;3.964;2022-12-08T01:03:51;50.87;;;27.23;;
18176;SDS011;9213;50.858;3.964;2022-12-08T01:06:18;49.50;;;25.63;;
18176;SDS011;9213;50.858;3.964;2022-12-08T01:08:45;48.60;;;25.67;;
18176;SDS011;9213;50.858;3.964;2022-12-08T01:11:13;55.60;;;28.20;;
18176;SDS011;9213;50.858;3.964;2022-12-08T01:13:41;48.77;;;26.37;;
18176;SDS011;9213;50.858;3.964;2022-12-08T01:16:08;48.77;;;26.53;;
18176;SDS011;9213;50.858;3.964;2022-12-08T01:18:43;48.87;;;27.07;;
18176;SDS011;9213;50.858;3.964;2022-12-08T01:21:11;47.20;;;26.37;;
18176;SDS011;9213;50.858;3.964;2022-12-08T01:23:38;51.07;;;26.23;;
18176;SDS011;9213;50.858;3.964;2022-12-08T01:26:06;53.10;;;26.77;;
18176;SDS011;9213;50.858;3.964;2022-12-08T01:28:35;48.33;;;24.90;;
18176;SDS011;9213;50.858;3.964;2022-12-08T01:31:02;52.17;;;26.83;;
18176;SDS011;9213;50.858;3.964;2022-12-08T01:33:30;50.10;;;25.67;;
18176;SDS011;9213;50.858;3.964;2022-12-08T01:36:01;49.90;;;25.07;;
18176;SDS011;9213;50.858;3.964;2022-12-08T01:38:30;51.20;;;25.30;;
18176;SDS011;9213;50.858;3.964;2022-12-08T01:40:58;43.07;;;23.97;;
18176;SDS011;9213;50.858;3.964;2022-12-08T01:43:25;49.93;;;24.63;;
18176;SDS011;9213;50.858;3.964;2022-12-08T01:46:14;48.00;;;25.43;;
18176;SDS011;9213;50.858;3.964;2022-12-08T01:48:41;47.70;;;25.40;;
18176;SDS011;9213;50.858;3.964;2022-12-08T01:51:08;48.53;;;24.97;;
18176;SDS011;9213;50.858;3.964;2022-12-08T01:53:38;44.30;;;25.13;;
18176;SDS011;9213;50.858;3.964;2022-12-08T01:56:05;49.57;;;24.77;;
18176;SDS011;9213;50.858;3.964;2022-12-08T01:58:36;47.37;;;23.77;;
18176;SDS011;9213;50.858;3.964;2022-12-08T02:01:06;40.90;;;23.07;;
18176;SDS011;9213;50.858;3.964;2022-12-08T02:03:34;50.43;;;23.70;;
18176;SDS011;9213;50.858;3.964;2022-12-08T02:06:06;47.93;;;23.10;;
18176;SDS011;9213;50.858;3.964;2022-12-08T02:08:33;44.87;;;23.37;;
18176;SDS011;9213;50.858;3.964;2022-12-08T02:11:07;39.73;;;21.47;;
18176;SDS011;9213;50.858;3.964;2022-12-08T02:13:34;43.80;;;22.27;;
18176;SDS011;9213;50.858;3.964;2022-12-08T02:16:02;41.60;;;22.97;;
18176;SDS011;9213;50.858;3.964;2022-12-08T02:18:38;41.83;;;22.57;;
18176;SDS011;9213;50.858;3.964;2022-12-08T02:21:20;45.40;;;23.83;;
18176;SDS011;9213;50.858;3.964;2022-12-08T02:23:55;44.90;;;24.17;;
18176;SDS011;9213;50.858;3.964;2022-12-08T02:32:43;42.00;;;22.27;;
18176;SDS011;9213;50.858;3.964;2022-12-08T02:35:31;47.53;;;23.90;;
18176;SDS011;9213;50.858;3.964;2022-12-08T02:38:04;43.10;;;24.00;;
18176;SDS011;9213;50.858;3.964;2022-12-08T02:40:36;43.73;;;23.47;;
18176;SDS011;9213;50.858;3.964;2022-12-08T02:43:11;39.77;;;22.50;;
18176;SDS011;9213;50.858;3.964;2022-12-08T02:45:43;43.77;;;22.97;;
18176;SDS011;9213;50.858;3.964;2022-12-08T02:48:14;43.90;;;22.37;;
18176;SDS011;9213;50.858;3.964;2022-12-08T02:50:42;44.77;;;24.03;;
18176;SDS011;9213;50.858;3.964;2022-12-08T02:53:09;42.70;;;22.67;;
18176;SDS011;9213;50.858;3.964;2022-12-08T02:55:37;38.47;;;22.77;;
18176;SDS011;9213;50.858;3.964;2022-12-08T02:58:18;41.47;;;22.87;;
18176;SDS011;9213;50.858;3.964;2022-12-08T03:01:03;38.70;;;22.63;;
18176;SDS011;9213;50.858;3.964;2022-12-08T03:03:40;43.40;;;22.83;;
18176;SDS011;9213;50.858;3.964;2022-12-08T03:06:18;45.70;;;23.17;;
18176;SDS011;9213;50.858;3.964;2022-12-08T03:08:54;39.77;;;21.23;;
18176;SDS011;9213;50.858;3.964;2022-12-08T03:11:24;43.90;;;22.83;;
18176;SDS011;9213;50.858;3.964;2022-12-08T03:13:58;45.90;;;22.53;;
18176;SDS011;9213;50.858;3.964;2022-12-08T03:16:28;40.40;;;21.43;;
18176;SDS011;9213;50.858;3.964;2022-12-08T03:18:58;41.67;;;22.57;;
18176;SDS011;9213;50.858;3.964;2022-12-08T03:21:30;42.07;;;22.40;;
18176;SDS011;9213;50.858;3.964;2022-12-08T03:23:58;41.83;;;21.00;;
18176;SDS011;9213;50.858;3.964;2022-12-08T03:26:30;39.40;;;21.63;;
18176;SDS011;9213;50.858;3.964;2022-12-08T03:29:03;42.03;;;21.93;;
18176;SDS011;9213;50.858;3.964;2022-12-08T03:31:31;44.37;;;22.37;;
18176;SDS011;9213;50.858;3.964;2022-12-08T03:34:02;46.33;;;21.80;;
18176;SDS011;9213;50.858;3.964;2022-12-08T03:36:32;45.37;;;22.57;;
18176;SDS011;9213;50.858;3.964;2022-12-08T03:38:59;47.23;;;21.93;;
18176;SDS011;9213;50.858;3.964;2022-12-08T03:41:26;47.57;;;23.50;;
18176;SDS011;9213;50.858;3.964;2022-12-08T03:43:54;46.00;;;24.23;;
18176;SDS011;9213;50.858;3.964;2022-12-08T03:46:23;46.40;;;23.17;;
18176;SDS011;9213;50.858;3.964;2022-12-08T03:48:52;50.03;;;23.83;;
18176;SDS011;9213;50.858;3.964;2022-12-08T03:51:19;45.40;;;24.07;;
18176;SDS011;9213;50.858;3.964;2022-12-08T03:53:48;45.00;;;23.27;;
18176;SDS011;9213;50.858;3.964;2022-12-08T03:56:18;47.60;;;23.93;;
18176;SDS011;9213;50.858;3.964;2022-12-08T03:58:49;54.30;;;24.60;;
18176;SDS011;9213;50.858;3.964;2022-12-08T04:01:16;46.73;;;23.47;;
18176;SDS011;9213;50.858;3.964;2022-12-08T04:03:43;51.97;;;25.70;;
18176;SDS011;9213;50.858;3.964;2022-12-08T04:06:10;54.40;;;24.17;;
18176;SDS011;9213;50.858;3.964;2022-12-08T04:08:37;54.63;;;23.23;;
18176;SDS011;9213;50.858;3.964;2022-12-08T04:11:06;48.83;;;25.43;;
18176;SDS011;9213;50.858;3.964;2022-12-08T04:13:33;47.93;;;23.97;;
18176;SDS011;9213;50.858;3.964;2022-12-08T04:16:01;60.93;;;25.40;;
18176;SDS011;9213;50.858;3.964;2022-12-08T04:18:28;53.57;;;24.57;;
18176;SDS011;9213;50.858;3.964;2022-12-08T04:20:54;57.60;;;25.33;;
18176;SDS011;9213;50.858;3.964;2022-12-08T04:23:21;54.63;;;25.30;;
18176;SDS011;9213;50.858;3.964;2022-12-08T04:25:49;49.67;;;25.37;;
18176;SDS011;9213;50.858;3.964;2022-12-08T04:28:17;56.30;;;25.47;;
18176;SDS011;9213;50.858;3.964;2022-12-08T04:30:44;59.70;;;25.47;;
18176;SDS011;9213;50.858;3.964;2022-12-08T04:33:13;49.87;;;24.83;;
18176;SDS011;9213;50.858;3.964;2022-12-08T04:35:40;55.40;;;25.80;;
18176;SDS011;9213;50.858;3.964;2022-12-08T04:38:07;54.50;;;25.47;;
18176;SDS011;9213;50.858;3.964;2022-12-08T04:40:34;50.97;;;24.53;;
18176;SDS011;9213;50.858;3.964;2022-12-08T04:43:01;51.27;;;24.53;;
18176;SDS011;9213;50.858;3.964;2022-12-08T04:45:29;49.70;;;23.27;;
18176;SDS011;9213;50.858;3.964;2022-12-08T04:47:56;49.17;;;23.27;;
18176;SDS011;9213;50.858;3.964;2022-12-08T04:50:24;49.07;;;23.60;;
18176;SDS011;9213;50.858;3.964;2022-12-08T04:52:51;43.50;;;22.33;;
18176;SDS011;9213;50.858;3.964;2022-12-08T04:55:18;42.67;;;22.67;;
18176;SDS011;9213;50.858;3.964;2022-12-08T04:57:45;43.93;;;22.40;;
18176;SDS011;9213;50.858;3.964;2022-12-08T05:00:12;48.27;;;23.27;;
18176;SDS011;9213;50.858;3.964;2022-12-08T05:02:41;45.17;;;21.63;;
18176;SDS011;9213;50.858;3.964;2022-12-08T05:05:08;43.17;;;22.30;;
18176;SDS011;9213;50.858;3.964;2022-12-08T05:07:34;54.47;;;23.03;;
18176;SDS011;9213;50.858;3.964;2022-12-08T05:10:02;40.07;;;21.87;;
18176;SDS011;9213;50.858;3.964;2022-12-08T05:12:29;52.20;;;23.47;;
18176;SDS011;9213;50.858;3.964;2022-12-08T05:14:56;49.27;;;23.43;;
18176;SDS011;9213;50.858;3.964;2022-12-08T05:17:23;45.23;;;23.20;;
18176;SDS011;9213;50.858;3.964;2022-12-08T05:19:51;47.13;;;22.23;;
18176;SDS011;9213;50.858;3.964;2022-12-08T05:22:18;44.87;;;22.43;;
18176;SDS011;9213;50.858;3.964;2022-12-08T05:24:45;40.43;;;23.70;;
18176;SDS011;9213;50.858;3.964;2022-12-08T05:27:12;44.10;;;23.40;;
18176;SDS011;9213;50.858;3.964;2022-12-08T05:29:39;42.60;;;22.53;;
18176;SDS011;9213;50.858;3.964;2022-12-08T05:32:06;41.47;;;22.87;;
18176;SDS011;9213;50.858;3.964;2022-12-08T05:34:33;46.23;;;22.93;;
18176;SDS011;9213;50.858;3.964;2022-12-08T05:37:01;41.53;;;22.80;;
18176;SDS011;9213;50.858;3.964;2022-12-08T05:39:28;45.77;;;22.60;;
18176;SDS011;9213;50.858;3.964;2022-12-08T05:41:55;45.27;;;22.73;;
18176;SDS011;9213;50.858;3.964;2022-12-08T05:44:22;42.63;;;21.77;;
18176;SDS011;9213;50.858;3.964;2022-12-08T05:46:48;41.73;;;22.27;;
18176;SDS011;9213;50.858;3.964;2022-12-08T05:49:15;46.13;;;23.17;;
18176;SDS011;9213;50.858;3.964;2022-12-08T05:51:42;40.53;;;20.43;;
18176;SDS011;9213;50.858;3.964;2022-12-08T05:54:11;37.13;;;21.07;;
18176;SDS011;9213;50.858;3.964;2022-12-08T05:56:38;38.27;;;19.73;;
18176;SDS011;9213;50.858;3.964;2022-12-08T05:59:05;41.57;;;20.77;;
18176;SDS011;9213;50.858;3.964;2022-12-08T06:01:32;38.10;;;19.80;;
18176;SDS011;9213;50.858;3.964;2022-12-08T06:04:00;41.67;;;20.47;;
18176;SDS011;9213;50.858;3.964;2022-12-08T06:06:28;38.70;;;19.73;;
18176;SDS011;9213;50.858;3.964;2022-12-08T06:08:56;38.13;;;20.20;;
18176;SDS011;9213;50.858;3.964;2022-12-08T06:11:25;40.53;;;20.50;;
18176;SDS011;9213;50.858;3.964;2022-12-08T06:13:53;39.10;;;19.63;;
18176;SDS011;9213;50.858;3.964;2022-12-08T06:16:21;34.33;;;18.67;;
18176;SDS011;9213;50.858;3.964;2022-12-08T06:18:48;33.87;;;19.60;;
18176;SDS011;9213;50.858;3.964;2022-12-08T06:21:15;41.30;;;21.00;;
18176;SDS011;9213;50.858;3.964;2022-12-08T06:23:43;39.30;;;19.47;;
18176;SDS011;9213;50.858;3.964;2022-12-08T06:26:13;36.50;;;20.03;;
18176;SDS011;9213;50.858;3.964;2022-12-08T06:28:42;32.13;;;18.53;;
18176;SDS011;9213;50.858;3.964;2022-12-08T06:31:10;36.10;;;19.93;;
18176;SDS011;9213;50.858;3.964;2022-12-08T06:33:39;35.53;;;19.77;;
18176;SDS011;9213;50.858;3.964;2022-12-08T06:36:06;42.77;;;20.27;;
18176;SDS011;9213;50.858;3.964;2022-12-08T06:38:33;37.80;;;18.97;;
18176;SDS011;9213;50.858;3.964;2022-12-08T06:41:00;41.60;;;20.53;;
18176;SDS011;9213;50.858;3.964;2022-12-08T06:43:27;35.13;;;18.43;;
18176;SDS011;9213;50.858;3.964;2022-12-08T06:45:55;41.23;;;19.30;;
18176;SDS011;9213;50.858;3.964;2022-12-08T06:48:22;35.93;;;20.43;;
18176;SDS011;9213;50.858;3.964;2022-12-08T06:50:49;38.87;;;21.13;;
18176;SDS011;9213;50.858;3.964;2022-12-08T06:53:16;37.53;;;22.00;;
18176;SDS011;9213;50.858;3.964;2022-12-08T06:55:43;37.60;;;20.63;;
18176;SDS011;9213;50.858;3.964;2022-12-08T06:58:10;36.00;;;21.27;;
18176;SDS011;9213;50.858;3.964;2022-12-08T07:00:38;46.97;;;24.30;;
18176;SDS011;9213;50.858;3.964;2022-12-08T07:03:08;44.97;;;23.23;;
18176;SDS011;9213;50.858;3.964;2022-12-08T07:05:36;40.43;;;24.10;;
18176;SDS011;9213;50.858;3.964;2022-12-08T07:08:04;43.00;;;22.33;;
18176;SDS011;9213;50.858;3.964;2022-12-08T07:10:32;41.50;;;21.13;;
18176;SDS011;9213;50.858;3.964;2022-12-08T07:12:59;38.87;;;21.97;;
18176;SDS011;9213;50.858;3.964;2022-12-08T07:15:26;38.53;;;21.20;;
18176;SDS011;9213;50.858;3.964;2022-12-08T07:17:53;41.27;;;21.77;;
18176;SDS011;9213;50.858;3.964;2022-12-08T07:20:21;38.63;;;20.73;;
18176;SDS011;9213;50.858;3.964;2022-12-08T07:22:48;41.60;;;20.63;;
18176;SDS011;9213;50.858;3.964;2022-12-08T07:25:15;42.53;;;21.83;;
18176;SDS011;9213;50.858;3.964;2022-12-08T07:27:42;35.83;;;20.40;;
18176;SDS011;9213;50.858;3.964;2022-12-08T07:30:10;37.43;;;20.17;;
18176;SDS011;9213;50.858;3.964;2022-12-08T07:32:38;37.33;;;20.70;;
18176;SDS011;9213;50.858;3.964;2022-12-08T07:35:05;44.33;;;21.43;;
18176;SDS011;9213;50.858;3.964;2022-12-08T07:37:35;41.70;;;21.80;;
18176;SDS011;9213;50.858;3.964;2022-12-08T07:40:03;37.67;;;20.30;;
18176;SDS011;9213;50.858;3.964;2022-12-08T07:42:30;36.97;;;22.17;;
18176;SDS011;9213;50.858;3.964;2022-12-08T07:44:57;39.43;;;22.93;;
18176;SDS011;9213;50.858;3.964;2022-12-08T07:47:24;39.70;;;22.80;;
18176;SDS011;9213;50.858;3.964;2022-12-08T07:49:51;40.07;;;21.30;;
18176;SDS011;9213;50.858;3.964;2022-12-08T07:52:18;39.00;;;21.90;;
18176;SDS011;9213;50.858;3.964;2022-12-08T07:54:47;37.50;;;22.93;;
18176;SDS011;9213;50.858;3.964;2022-12-08T07:57:14;40.80;;;21.90;;
18176;SDS011;9213;50.858;3.964;2022-12-08T07:59:41;43.53;;;22.37;;
18176;SDS011;9213;50.858;3.964;2022-12-08T08:02:11;45.67;;;23.53;;
18176;SDS011;9213;50.858;3.964;2022-12-08T08:04:42;43.47;;;24.03;;
18176;SDS011;9213;50.858;3.964;2022-12-08T08:07:09;46.43;;;24.03;;
18176;SDS011;9213;50.858;3.964;2022-12-08T08:09:36;38.43;;;21.93;;
18176;SDS011;9213;50.858;3.964;2022-12-08T08:12:05;45.17;;;22.60;;
18176;SDS011;9213;50.858;3.964;2022-12-08T08:14:32;44.87;;;23.00;;
18176;SDS011;9213;50.858;3.964;2022-12-08T08:16:59;44.83;;;23.23;;
18176;SDS011;9213;50.858;3.964;2022-12-08T08:19:26;49.20;;;24.03;;
18176;SDS011;9213;50.858;3.964;2022-12-08T08:21:52;43.77;;;23.10;;
18176;SDS011;9213;50.858;3.964;2022-12-08T08:24:19;47.20;;;24.10;;
18176;SDS011;9213;50.858;3.964;2022-12-08T08:26:48;40.33;;;23.33;;
18176;SDS011;9213;50.858;3.964;2022-12-08T08:29:16;37.80;;;22.53;;
18176;SDS011;9213;50.858;3.964;2022-12-08T08:31:43;44.00;;;22.47;;
18176;SDS011;9213;50.858;3.964;2022-12-08T08:34:10;46.47;;;22.83;;
18176;SDS011;9213;50.858;3.964;2022-12-08T08:36:37;41.67;;;22.17;;
18176;SDS011;9213;50.858;3.964;2022-12-08T08:39:05;47.23;;;22.17;;
18176;SDS011;9213;50.858;3.964;2022-12-08T08:41:32;43.23;;;24.07;;
18176;SDS011;9213;50.858;3.964;2022-12-08T08:43:59;41.77;;;23.27;;
18176;SDS011;9213;50.858;3.964;2022-12-08T08:46:27;40.03;;;22.60;;
18176;SDS011;9213;50.858;3.964;2022-12-08T08:48:54;41.33;;;23.20;;
18176;SDS011;9213;50.858;3.964;2022-12-08T08:51:21;42.50;;;24.20;;
18176;SDS011;9213;50.858;3.964;2022-12-08T08:53:48;41.73;;;23.00;;
18176;SDS011;9213;50.858;3.964;2022-12-08T08:56:16;37.77;;;23.30;;
18176;SDS011;9213;50.858;3.964;2022-12-08T08:58:45;48.33;;;23.13;;
18176;SDS011;9213;50.858;3.964;2022-12-08T09:01:13;39.60;;;22.73;;
18176;SDS011;9213;50.858;3.964;2022-12-08T09:03:43;44.20;;;24.20;;
18176;SDS011;9213;50.858;3.964;2022-12-08T09:06:10;45.27;;;24.23;;
18176;SDS011;9213;50.858;3.964;2022-12-08T09:08:37;38.23;;;23.43;;
18176;SDS011;9213;50.858;3.964;2022-12-08T09:11:04;41.60;;;20.43;;
18176;SDS011;9213;50.858;3.964;2022-12-08T09:13:31;34.40;;;20.90;;
18176;SDS011;9213;50.858;3.964;2022-12-08T09:15:59;37.70;;;20.83;;
18176;SDS011;9213;50.858;3.964;2022-12-08T09:18:26;35.53;;;20.23;;
18176;SDS011;9213;50.858;3.964;2022-12-08T09:20:55;30.90;;;19.43;;
18176;SDS011;9213;50.858;3.964;2022-12-08T09:23:22;34.60;;;19.70;;
18176;SDS011;9213;50.858;3.964;2022-12-08T09:25:49;30.50;;;19.87;;
18176;SDS011;9213;50.858;3.964;2022-12-08T09:28:16;33.13;;;20.13;;
18176;SDS011;9213;50.858;3.964;2022-12-08T09:30:43;34.97;;;19.47;;
18176;SDS011;9213;50.858;3.964;2022-12-08T09:33:10;31.90;;;18.97;;
18176;SDS011;9213;50.858;3.964;2022-12-08T09:35:37;31.07;;;19.10;;
18176;SDS011;9213;50.858;3.964;2022-12-08T09:38:05;32.37;;;18.63;;
18176;SDS011;9213;50.858;3.964;2022-12-08T09:40:34;32.33;;;18.17;;
18176;SDS011;9213;50.858;3.964;2022-12-08T09:43:15;29.73;;;18.40;;
18176;SDS011;9213;50.858;3.964;2022-12-08T09:45:50;28.33;;;17.80;;
18176;SDS011;9213;50.858;3.964;2022-12-08T09:48:18;29.03;;;18.07;;
18176;SDS011;9213;50.858;3.964;2022-12-08T09:50:49;30.50;;;18.93;;
18176;SDS011;9213;50.858;3.964;2022-12-08T09:53:21;30.53;;;18.13;;
18176;SDS011;9213;50.858;3.964;2022-12-08T09:55:52;28.13;;;17.57;;
18176;SDS011;9213;50.858;3.964;2022-12-08T09:58:24;30.70;;;18.00;;
18176;SDS011;9213;50.858;3.964;2022-12-08T10:00:57;30.67;;;18.47;;
18176;SDS011;9213;50.858;3.964;2022-12-08T10:03:26;31.00;;;18.67;;
18176;SDS011;9213;50.858;3.964;2022-12-08T10:05:55;27.97;;;17.43;;
18176;SDS011;9213;50.858;3.964;2022-12-08T10:08:31;28.77;;;18.20;;
18176;SDS011;9213;50.858;3.964;2022-12-08T10:11:06;26.47;;;17.20;;
18176;SDS011;9213;50.858;3.964;2022-12-08T10:13:39;28.77;;;17.37;;
18176;SDS011;9213;50.858;3.964;2022-12-08T10:16:14;24.30;;;17.80;;
18176;SDS011;9213;50.858;3.964;2022-12-08T10:18:49;31.70;;;17.80;;
18176;SDS011;9213;50.858;3.964;2022-12-08T10:21:21;28.73;;;17.77;;
18176;SDS011;9213;50.858;3.964;2022-12-08T10:23:54;30.43;;;17.73;;
18176;SDS011;9213;50.858;3.964;2022-12-08T10:26:23;25.13;;;17.30;;
18176;SDS011;9213;50.858;3.964;2022-12-08T10:28:50;27.33;;;16.73;;
18176;SDS011;9213;50.858;3.964;2022-12-08T10:31:18;23.20;;;15.00;;
18176;SDS011;9213;50.858;3.964;2022-12-08T10:33:48;23.57;;;14.47;;
18176;SDS011;9213;50.858;3.964;2022-12-08T10:36:22;20.13;;;13.83;;
18176;SDS011;9213;50.858;3.964;2022-12-08T10:38:54;22.17;;;14.53;;
18176;SDS011;9213;50.858;3.964;2022-12-08T10:41:20;19.40;;;13.27;;
18176;SDS011;9213;50.858;3.964;2022-12-08T10:43:51;21.80;;;13.23;;
18176;SDS011;9213;50.858;3.964;2022-12-08T10:46:23;18.03;;;12.60;;
18176;SDS011;9213;50.858;3.964;2022-12-08T10:48:52;20.77;;;13.17;;
18176;SDS011;9213;50.858;3.964;2022-12-08T10:51:21;15.30;;;11.53;;
18176;SDS011;9213;50.858;3.964;2022-12-08T10:53:49;17.87;;;11.43;;
18176;SDS011;9213;50.858;3.964;2022-12-08T10:56:18;17.83;;;11.57;;
18176;SDS011;9213;50.858;3.964;2022-12-08T10:58:49;20.13;;;11.67;;
18176;SDS011;9213;50.858;3.964;2022-12-08T11:01:31;18.43;;;11.73;;
18176;SDS011;9213;50.858;3.964;2022-12-08T11:04:03;15.87;;;11.37;;
18176;SDS011;9213;50.858;3.964;2022-12-08T11:06:33;20.23;;;10.90;;
18176;SDS011;9213;50.858;3.964;2022-12-08T11:09:02;21.83;;;11.47;;
18176;SDS011;9213;50.858;3.964;2022-12-08T11:11:42;14.47;;;10.13;;
18176;SDS011;9213;50.858;3.964;2022-12-08T11:14:14;15.53;;;10.43;;
18176;SDS011;9213;50.858;3.964;2022-12-08T11:16:43;15.67;;;10.80;;
18176;SDS011;9213;50.858;3.964;2022-12-08T11:19:13;18.90;;;11.27;;
18176;SDS011;9213;50.858;3.964;2022-12-08T11:21:42;17.47;;;11.87;;
18176;SDS011;9213;50.858;3.964;2022-12-08T11:24:20;17.33;;;10.07;;
18176;SDS011;9213;50.858;3.964;2022-12-08T11:26:51;13.37;;;10.23;;
18176;SDS011;9213;50.858;3.964;2022-12-08T11:29:20;16.60;;;9.67;;
18176;SDS011;9213;50.858;3.964;2022-12-08T11:31:47;15.23;;;10.43;;
18176;SDS011;9213;50.858;3.964;2022-12-08T11:34:18;16.27;;;10.20;;
18176;SDS011;9213;50.858;3.964;2022-12-08T11:36:48;14.77;;;10.63;;
18176;SDS011;9213;50.858;3.964;2022-12-08T11:39:18;16.83;;;10.70;;
18176;SDS011;9213;50.858;3.964;2022-12-08T11:41:46;17.63;;;10.43;;
18176;SDS011;9213;50.858;3.964;2022-12-08T11:44:21;17.50;;;10.40;;
18176;SDS011;9213;50.858;3.964;2022-12-08T11:46:54;15.33;;;10.30;;
18176;SDS011;9213;50.858;3.964;2022-12-08T11:49:24;15.67;;;10.47;;
18176;SDS011;9213;50.858;3.964;2022-12-08T11:51:58;22.30;;;11.53;;
18176;SDS011;9213;50.858;3.964;2022-12-08T11:54:31;15.43;;;10.43;;
18176;SDS011;9213;50.858;3.964;2022-12-08T11:57:00;16.17;;;11.07;;
18176;SDS011;9213;50.858;3.964;2022-12-08T11:59:31;20.10;;;14.27;;
18176;SDS011;9213;50.858;3.964;2022-12-08T12:02:02;15.13;;;10.17;;
18176;SDS011;9213;50.858;3.964;2022-12-08T12:04:32;15.97;;;10.47;;
18176;SDS011;9213;50.858;3.964;2022-12-08T12:07:08;18.77;;;10.80;;
18176;SDS011;9213;50.858;3.964;2022-12-08T12:12:56;18.00;;;10.43;;
18176;SDS011;9213;50.858;3.964;2022-12-08T12:18:48;15.67;;;10.23;;
18176;SDS011;9213;50.858;3.964;2022-12-08T12:21:17;11.47;;;9.13;;
18176;SDS011;9213;50.858;3.964;2022-12-08T12:23:47;17.20;;;9.43;;
18176;SDS011;9213;50.858;3.964;2022-12-08T12:26:20;11.00;;;8.07;;
18176;SDS011;9213;50.858;3.964;2022-12-08T12:28:50;15.27;;;8.50;;
18176;SDS011;9213;50.858;3.964;2022-12-08T12:31:22;11.77;;;7.97;;
18176;SDS011;9213;50.858;3.964;2022-12-08T12:33:52;13.53;;;8.40;;
18176;SDS011;9213;50.858;3.964;2022-12-08T12:36:28;12.93;;;8.50;;
18176;SDS011;9213;50.858;3.964;2022-12-08T12:38:56;13.63;;;9.90;;
18176;SDS011;9213;50.858;3.964;2022-12-08T12:41:30;13.97;;;9.50;;
18176;SDS011;9213;50.858;3.964;2022-12-08T12:44:07;12.00;;;8.77;;
18176;SDS011;9213;50.858;3.964;2022-12-08T12:46:56;13.73;;;8.03;;
18176;SDS011;9213;50.858;3.964;2022-12-08T12:55:20;11.30;;;8.10;;
18176;SDS011;9213;50.858;3.964;2022-12-08T12:57:49;14.27;;;8.07;;
18176;SDS011;9213;50.858;3.964;2022-12-08T13:00:18;12.10;;;8.07;;
18176;SDS011;9213;50.858;3.964;2022-12-08T13:02:47;11.07;;;7.13;;
18176;SDS011;9213;50.858;3.964;2022-12-08T13:05:17;12.93;;;8.23;;
18176;SDS011;9213;50.858;3.964;2022-12-08T13:07:47;15.07;;;8.03;;
18176;SDS011;9213;50.858;3.964;2022-12-08T13:10:19;10.77;;;7.10;;
18176;SDS011;9213;50.858;3.964;2022-12-08T13:13:00;9.97;;;7.07;;
18176;SDS011;9213;50.858;3.964;2022-12-08T13:15:32;12.77;;;7.70;;
18176;SDS011;9213;50.858;3.964;2022-12-08T13:18:02;9.90;;;6.77;;
18176;SDS011;9213;50.858;3.964;2022-12-08T13:20:30;9.10;;;6.10;;
18176;SDS011;9213;50.858;3.964;2022-12-08T13:23:11;9.07;;;7.20;;
18176;SDS011;9213;50.858;3.964;2022-12-08T13:25:52;9.23;;;6.17;;
18176;SDS011;9213;50.858;3.964;2022-12-08T13:28:38;6.60;;;4.70;;
18176;SDS011;9213;50.858;3.964;2022-12-08T13:31:43;7.40;;;4.80;;
18176;SDS011;9213;50.858;3.964;2022-12-08T13:34:13;8.47;;;4.50;;
18176;SDS011;9213;50.858;3.964;2022-12-08T13:36:46;6.30;;;4.40;;
18176;SDS011;9213;50.858;3.964;2022-12-08T13:39:20;10.13;;;5.03;;
18176;SDS011;9213;50.858;3.964;2022-12-08T13:41:56;6.60;;;5.00;;
18176;SDS011;9213;50.858;3.964;2022-12-08T13:44:27;7.23;;;4.70;;
18176;SDS011;9213;50.858;3.964;2022-12-08T13:46:57;7.07;;;4.27;;
18176;SDS011;9213;50.858;3.964;2022-12-08T13:49:27;7.27;;;4.50;;
18176;SDS011;9213;50.858;3.964;2022-12-08T13:51:58;10.83;;;6.43;;
18176;SDS011;9213;50.858;3.964;2022-12-08T13:54:27;14.93;;;8.20;;
18176;SDS011;9213;50.858;3.964;2022-12-08T13:56:58;16.33;;;8.30;;
18176;SDS011;9213;50.858;3.964;2022-12-08T13:59:26;8.30;;;5.63;;
18176;SDS011;9213;50.858;3.964;2022-12-08T14:01:56;14.97;;;6.77;;
18176;SDS011;9213;50.858;3.964;2022-12-08T14:04:27;11.63;;;5.90;;
18176;SDS011;9213;50.858;3.964;2022-12-08T14:06:56;22.37;;;12.40;;
18176;SDS011;9213;50.858;3.964;2022-12-08T14:09:26;21.37;;;10.97;;
18176;SDS011;9213;50.858;3.964;2022-12-08T14:11:58;9.73;;;7.30;;
18176;SDS011;9213;50.858;3.964;2022-12-08T14:14:28;9.30;;;7.13;;
18176;SDS011;9213;50.858;3.964;2022-12-08T14:16:59;11.50;;;6.07;;
18176;SDS011;9213;50.858;3.964;2022-12-08T14:19:30;5.20;;;3.87;;
18176;SDS011;9213;50.858;3.964;2022-12-08T14:21:59;6.50;;;3.80;;
18176;SDS011;9213;50.858;3.964;2022-12-08T14:24:27;4.53;;;3.53;;
18176;SDS011;9213;50.858;3.964;2022-12-08T14:26:57;4.23;;;3.33;;
18176;SDS011;9213;50.858;3.964;2022-12-08T14:32:18;4.40;;;3.77;;
18176;SDS011;9213;50.858;3.964;2022-12-08T14:34:52;5.23;;;3.77;;
18176;SDS011;9213;50.858;3.964;2022-12-08T14:37:21;6.83;;;5.10;;
18176;SDS011;9213;50.858;3.964;2022-12-08T14:39:51;12.50;;;7.27;;
18176;SDS011;9213;50.858;3.964;2022-12-08T14:42:23;6.70;;;4.40;;
18176;SDS011;9213;50.858;3.964;2022-12-08T14:44:54;4.03;;;3.40;;
18176;SDS011;9213;50.858;3.964;2022-12-08T14:47:29;4.60;;;3.50;;
18176;SDS011;9213;50.858;3.964;2022-12-08T14:49:59;13.33;;;8.03;;
18176;SDS011;9213;50.858;3.964;2022-12-08T14:52:27;2.80;;;2.30;;
18176;SDS011;9213;50.858;3.964;2022-12-08T14:54:55;2.87;;;2.30;;
18176;SDS011;9213;50.858;3.964;2022-12-08T14:57:23;4.83;;;2.20;;
18176;SDS011;9213;50.858;3.964;2022-12-08T14:59:57;2.40;;;1.80;;
18176;SDS011;9213;50.858;3.964;2022-12-08T15:02:31;1.90;;;1.50;;
18176;SDS011;9213;50.858;3.964;2022-12-08T15:05:00;1.23;;;1.23;;
18176;SDS011;9213;50.858;3.964;2022-12-08T15:07:31;4.40;;;1.40;;
18176;SDS011;9213;50.858;3.964;2022-12-08T15:10:17;3.00;;;2.80;;
18176;SDS011;9213;50.858;3.964;2022-12-08T15:12:56;6.23;;;4.83;;
18176;SDS011;9213;50.858;3.964;2022-12-08T15:15:25;5.37;;;4.57;;